sensor_id;sensor_type;location;lat;lon;timestamp;P1;durP1;ratioP1;P2;durP2;ratioP2
36351;SDS011;22382;44.768;17.206;2023-05-08T00:01:40;7.03;;;4.30;;
36351;SDS011;22382;44.768;17.206;2023-05-08T00:04:08;4.88;;;4.22;;
36351;SDS011;22382;44.768;17.206;2023-05-08T00:06:35;4.53;;;4.00;;
36351;SDS011;22382;44.768;17.206;2023-05-08T00:09:02;4.82;;;4.32;;
36351;SDS011;22382;44.768;17.206;2023-05-08T00:11:29;7.35;;;4.78;;
36351;SDS011;22382;44.768;17.206;2023-05-08T00:13:56;5.07;;;4.40;;
36351;SDS011;22382;44.768;17.206;2023-05-08T00:16:24;5.35;;;4.35;;
36351;SDS011;22382;44.768;17.206;2023-05-08T00:18:51;6.90;;;4.55;;
36351;SDS011;22382;44.768;17.206;2023-05-08T00:21:19;6.68;;;4.70;;
36351;SDS011;22382;44.768;17.206;2023-05-08T00:23:46;5.20;;;4.70;;
36351;SDS011;22382;44.768;17.206;2023-05-08T00:26:13;5.28;;;4.45;;
36351;SDS011;22382;44.768;17.206;2023-05-08T00:28:40;6.32;;;4.75;;
36351;SDS011;22382;44.768;17.206;2023-05-08T00:31:07;6.60;;;5.40;;
36351;SDS011;22382;44.768;17.206;2023-05-08T00:33:35;5.25;;;4.70;;
36351;SDS011;22382;44.768;17.206;2023-05-08T00:36:03;5.70;;;5.10;;
36351;SDS011;22382;44.768;17.206;2023-05-08T00:38:33;4.90;;;4.50;;
36351;SDS011;22382;44.768;17.206;2023-05-08T00:41:01;4.85;;;4.30;;
36351;SDS011;22382;44.768;17.206;2023-05-08T00:43:29;5.00;;;4.50;;
36351;SDS011;22382;44.768;17.206;2023-05-08T00:45:58;5.45;;;4.78;;
36351;SDS011;22382;44.768;17.206;2023-05-08T00:48:27;6.65;;;5.35;;
36351;SDS011;22382;44.768;17.206;2023-05-08T00:50:57;5.28;;;4.78;;
36351;SDS011;22382;44.768;17.206;2023-05-08T00:53:26;6.10;;;4.32;;
36351;SDS011;22382;44.768;17.206;2023-05-08T00:55:56;4.95;;;4.50;;
36351;SDS011;22382;44.768;17.206;2023-05-08T00:58:24;7.20;;;4.50;;
36351;SDS011;22382;44.768;17.206;2023-05-08T01:00:54;4.47;;;4.07;;
36351;SDS011;22382;44.768;17.206;2023-05-08T01:03:22;5.57;;;3.75;;
36351;SDS011;22382;44.768;17.206;2023-05-08T01:05:50;4.32;;;3.45;;
36351;SDS011;22382;44.768;17.206;2023-05-08T01:08:18;4.88;;;3.72;;
36351;SDS011;22382;44.768;17.206;2023-05-08T01:13:42;4.63;;;3.85;;
36351;SDS011;22382;44.768;17.206;2023-05-08T01:21:48;5.07;;;4.43;;
36351;SDS011;22382;44.768;17.206;2023-05-08T01:33:01;4.60;;;3.75;;
36351;SDS011;22382;44.768;17.206;2023-05-08T01:35:58;4.53;;;4.13;;
36351;SDS011;22382;44.768;17.206;2023-05-08T01:38:32;5.75;;;5.25;;
36351;SDS011;22382;44.768;17.206;2023-05-08T01:41:09;6.18;;;4.78;;
36351;SDS011;22382;44.768;17.206;2023-05-08T01:43:52;5.72;;;5.13;;
36351;SDS011;22382;44.768;17.206;2023-05-08T01:46:21;5.30;;;4.80;;
36351;SDS011;22382;44.768;17.206;2023-05-08T01:51:42;6.03;;;5.00;;
36351;SDS011;22382;44.768;17.206;2023-05-08T01:54:15;5.72;;;4.70;;
36351;SDS011;22382;44.768;17.206;2023-05-08T01:56:48;5.90;;;4.47;;
36351;SDS011;22382;44.768;17.206;2023-05-08T01:59:18;6.68;;;5.10;;
36351;SDS011;22382;44.768;17.206;2023-05-08T02:01:49;6.30;;;4.85;;
36351;SDS011;22382;44.768;17.206;2023-05-08T02:04:19;6.03;;;4.68;;
36351;SDS011;22382;44.768;17.206;2023-05-08T02:06:49;5.70;;;4.90;;
36351;SDS011;22382;44.768;17.206;2023-05-08T02:09:17;5.45;;;4.65;;
36351;SDS011;22382;44.768;17.206;2023-05-08T02:11:46;6.15;;;4.90;;
36351;SDS011;22382;44.768;17.206;2023-05-08T02:14:16;6.00;;;4.68;;
36351;SDS011;22382;44.768;17.206;2023-05-08T02:16:46;5.53;;;5.03;;
36351;SDS011;22382;44.768;17.206;2023-05-08T02:19:16;5.93;;;4.50;;
36351;SDS011;22382;44.768;17.206;2023-05-08T02:21:47;5.53;;;4.60;;
36351;SDS011;22382;44.768;17.206;2023-05-08T02:24:16;5.57;;;4.78;;
36351;SDS011;22382;44.768;17.206;2023-05-08T02:26:44;6.18;;;4.95;;
36351;SDS011;22382;44.768;17.206;2023-05-08T02:29:13;8.18;;;5.65;;
36351;SDS011;22382;44.768;17.206;2023-05-08T02:31:41;7.70;;;6.75;;
36351;SDS011;22382;44.768;17.206;2023-05-08T02:34:10;9.52;;;6.30;;
36351;SDS011;22382;44.768;17.206;2023-05-08T02:36:38;10.20;;;6.50;;
36351;SDS011;22382;44.768;17.206;2023-05-08T02:39:07;8.25;;;6.63;;
36351;SDS011;22382;44.768;17.206;2023-05-08T02:41:39;9.73;;;6.13;;
36351;SDS011;22382;44.768;17.206;2023-05-08T02:44:07;6.28;;;5.60;;
36351;SDS011;22382;44.768;17.206;2023-05-08T02:46:40;7.78;;;6.47;;
36351;SDS011;22382;44.768;17.206;2023-05-08T03:02:07;7.35;;;6.13;;
36351;SDS011;22382;44.768;17.206;2023-05-08T03:04:41;9.02;;;6.18;;
36351;SDS011;22382;44.768;17.206;2023-05-08T03:07:14;7.35;;;5.82;;
36351;SDS011;22382;44.768;17.206;2023-05-08T03:09:43;6.82;;;5.97;;
36351;SDS011;22382;44.768;17.206;2023-05-08T03:12:14;7.85;;;6.15;;
36351;SDS011;22382;44.768;17.206;2023-05-08T03:14:54;6.72;;;5.75;;
36351;SDS011;22382;44.768;17.206;2023-05-08T03:17:23;8.93;;;7.25;;
36351;SDS011;22382;44.768;17.206;2023-05-08T03:19:54;8.07;;;6.22;;
36351;SDS011;22382;44.768;17.206;2023-05-08T03:22:26;8.10;;;6.35;;
36351;SDS011;22382;44.768;17.206;2023-05-08T03:24:55;7.40;;;5.18;;
36351;SDS011;22382;44.768;17.206;2023-05-08T03:27:26;7.65;;;6.38;;
36351;SDS011;22382;44.768;17.206;2023-05-08T03:29:55;8.65;;;6.50;;
36351;SDS011;22382;44.768;17.206;2023-05-08T03:32:23;8.55;;;6.53;;
36351;SDS011;22382;44.768;17.206;2023-05-08T03:34:53;7.72;;;6.85;;
36351;SDS011;22382;44.768;17.206;2023-05-08T03:37:25;8.00;;;5.80;;
36351;SDS011;22382;44.768;17.206;2023-05-08T03:39:54;5.97;;;5.10;;
36351;SDS011;22382;44.768;17.206;2023-05-08T03:42:22;7.72;;;6.32;;
36351;SDS011;22382;44.768;17.206;2023-05-08T03:44:50;6.47;;;5.35;;
36351;SDS011;22382;44.768;17.206;2023-05-08T03:47:19;7.90;;;6.63;;
36351;SDS011;22382;44.768;17.206;2023-05-08T03:49:48;7.82;;;6.75;;
36351;SDS011;22382;44.768;17.206;2023-05-08T03:52:16;7.50;;;5.68;;
36351;SDS011;22382;44.768;17.206;2023-05-08T03:54:43;6.45;;;5.18;;
36351;SDS011;22382;44.768;17.206;2023-05-08T03:57:11;4.80;;;4.30;;
36351;SDS011;22382;44.768;17.206;2023-05-08T03:59:46;4.95;;;4.25;;
36351;SDS011;22382;44.768;17.206;2023-05-08T04:07:50;5.82;;;5.15;;
36351;SDS011;22382;44.768;17.206;2023-05-08T04:10:29;10.73;;;8.27;;
36351;SDS011;22382;44.768;17.206;2023-05-08T04:13:09;9.25;;;8.27;;
36351;SDS011;22382;44.768;17.206;2023-05-08T04:15:59;10.13;;;7.82;;
36351;SDS011;22382;44.768;17.206;2023-05-08T04:18:33;9.50;;;8.07;;
36351;SDS011;22382;44.768;17.206;2023-05-08T04:21:07;9.27;;;7.85;;
36351;SDS011;22382;44.768;17.206;2023-05-08T04:26:05;8.70;;;7.50;;
36351;SDS011;22382;44.768;17.206;2023-05-08T04:28:33;7.78;;;5.40;;
36351;SDS011;22382;44.768;17.206;2023-05-08T04:31:01;7.03;;;5.22;;
36351;SDS011;22382;44.768;17.206;2023-05-08T04:33:30;6.07;;;5.22;;
36351;SDS011;22382;44.768;17.206;2023-05-08T04:36:02;7.68;;;5.03;;
36351;SDS011;22382;44.768;17.206;2023-05-08T04:38:29;7.38;;;4.93;;
36351;SDS011;22382;44.768;17.206;2023-05-08T04:40:56;5.68;;;5.07;;
36351;SDS011;22382;44.768;17.206;2023-05-08T04:43:24;10.65;;;8.55;;
36351;SDS011;22382;44.768;17.206;2023-05-08T04:45:51;7.65;;;5.60;;
36351;SDS011;22382;44.768;17.206;2023-05-08T04:48:19;7.10;;;4.78;;
36351;SDS011;22382;44.768;17.206;2023-05-08T04:50:46;6.25;;;4.72;;
36351;SDS011;22382;44.768;17.206;2023-05-08T04:53:13;5.65;;;4.97;;
36351;SDS011;22382;44.768;17.206;2023-05-08T04:55:41;7.13;;;5.65;;
36351;SDS011;22382;44.768;17.206;2023-05-08T04:58:11;5.72;;;5.18;;
36351;SDS011;22382;44.768;17.206;2023-05-08T05:00:38;6.13;;;5.15;;
36351;SDS011;22382;44.768;17.206;2023-05-08T05:03:06;5.75;;;4.72;;
36351;SDS011;22382;44.768;17.206;2023-05-08T05:05:34;7.93;;;4.70;;
36351;SDS011;22382;44.768;17.206;2023-05-08T05:08:04;5.68;;;5.07;;
36351;SDS011;22382;44.768;17.206;2023-05-08T05:10:31;7.60;;;5.50;;
36351;SDS011;22382;44.768;17.206;2023-05-08T05:12:58;6.18;;;5.53;;
36351;SDS011;22382;44.768;17.206;2023-05-08T05:15:25;5.47;;;4.32;;
36351;SDS011;22382;44.768;17.206;2023-05-08T05:17:53;5.32;;;4.82;;
36351;SDS011;22382;44.768;17.206;2023-05-08T05:20:20;8.68;;;5.72;;
36351;SDS011;22382;44.768;17.206;2023-05-08T05:22:47;7.60;;;5.72;;
36351;SDS011;22382;44.768;17.206;2023-05-08T05:25:14;7.93;;;5.68;;
36351;SDS011;22382;44.768;17.206;2023-05-08T05:27:41;7.70;;;5.70;;
36351;SDS011;22382;44.768;17.206;2023-05-08T05:30:08;6.07;;;5.05;;
36351;SDS011;22382;44.768;17.206;2023-05-08T05:32:36;6.88;;;5.03;;
36351;SDS011;22382;44.768;17.206;2023-05-08T05:35:03;7.40;;;4.93;;
36351;SDS011;22382;44.768;17.206;2023-05-08T05:37:31;5.80;;;4.95;;
36351;SDS011;22382;44.768;17.206;2023-05-08T05:39:58;7.32;;;5.53;;
36351;SDS011;22382;44.768;17.206;2023-05-08T05:42:25;17.48;;;8.45;;
36351;SDS011;22382;44.768;17.206;2023-05-08T05:44:52;30.52;;;17.83;;
36351;SDS011;22382;44.768;17.206;2023-05-08T05:47:22;24.25;;;15.15;;
36351;SDS011;22382;44.768;17.206;2023-05-08T05:49:49;17.08;;;10.68;;
36351;SDS011;22382;44.768;17.206;2023-05-08T05:52:16;15.88;;;10.43;;
36351;SDS011;22382;44.768;17.206;2023-05-08T05:54:43;10.07;;;6.10;;
36351;SDS011;22382;44.768;17.206;2023-05-08T05:57:12;9.20;;;5.93;;
36351;SDS011;22382;44.768;17.206;2023-05-08T05:59:39;9.80;;;7.25;;
36351;SDS011;22382;44.768;17.206;2023-05-08T06:02:06;9.90;;;7.72;;
36351;SDS011;22382;44.768;17.206;2023-05-08T06:04:35;9.70;;;7.40;;
36351;SDS011;22382;44.768;17.206;2023-05-08T06:07:02;6.97;;;4.78;;
36351;SDS011;22382;44.768;17.206;2023-05-08T06:09:30;7.63;;;4.93;;
36351;SDS011;22382;44.768;17.206;2023-05-08T06:11:57;7.30;;;5.35;;
36351;SDS011;22382;44.768;17.206;2023-05-08T06:14:24;6.60;;;5.38;;
36351;SDS011;22382;44.768;17.206;2023-05-08T06:16:53;6.75;;;5.60;;
36351;SDS011;22382;44.768;17.206;2023-05-08T06:19:21;8.30;;;5.68;;
36351;SDS011;22382;44.768;17.206;2023-05-08T06:21:50;7.40;;;5.95;;
36351;SDS011;22382;44.768;17.206;2023-05-08T06:24:17;9.10;;;6.25;;
36351;SDS011;22382;44.768;17.206;2023-05-08T06:26:44;9.63;;;6.15;;
36351;SDS011;22382;44.768;17.206;2023-05-08T06:29:14;6.32;;;4.85;;
36351;SDS011;22382;44.768;17.206;2023-05-08T06:31:41;7.65;;;5.05;;
36351;SDS011;22382;44.768;17.206;2023-05-08T06:34:09;5.68;;;4.72;;
36351;SDS011;22382;44.768;17.206;2023-05-08T06:36:36;9.65;;;5.57;;
36351;SDS011;22382;44.768;17.206;2023-05-08T06:39:03;9.93;;;5.72;;
36351;SDS011;22382;44.768;17.206;2023-05-08T06:41:33;6.72;;;5.00;;
36351;SDS011;22382;44.768;17.206;2023-05-08T06:44:00;7.13;;;5.10;;
36351;SDS011;22382;44.768;17.206;2023-05-08T06:46:28;10.35;;;6.10;;
36351;SDS011;22382;44.768;17.206;2023-05-08T06:48:55;9.82;;;6.53;;
36351;SDS011;22382;44.768;17.206;2023-05-08T06:51:22;13.98;;;7.63;;
36351;SDS011;22382;44.768;17.206;2023-05-08T06:53:49;12.13;;;7.05;;
36351;SDS011;22382;44.768;17.206;2023-05-08T06:56:16;12.27;;;6.53;;
36351;SDS011;22382;44.768;17.206;2023-05-08T06:58:44;11.27;;;6.75;;
36351;SDS011;22382;44.768;17.206;2023-05-08T07:01:26;14.17;;;7.70;;
36351;SDS011;22382;44.768;17.206;2023-05-08T07:03:53;16.48;;;8.35;;
36351;SDS011;22382;44.768;17.206;2023-05-08T07:06:20;23.45;;;9.80;;
36351;SDS011;22382;44.768;17.206;2023-05-08T07:08:48;26.25;;;9.35;;
36351;SDS011;22382;44.768;17.206;2023-05-08T07:11:15;19.70;;;8.43;;
36351;SDS011;22382;44.768;17.206;2023-05-08T07:13:42;12.70;;;6.63;;
36351;SDS011;22382;44.768;17.206;2023-05-08T07:16:11;8.35;;;6.43;;
36351;SDS011;22382;44.768;17.206;2023-05-08T07:18:38;9.48;;;6.80;;
36351;SDS011;22382;44.768;17.206;2023-05-08T07:21:06;8.27;;;6.32;;
36351;SDS011;22382;44.768;17.206;2023-05-08T07:23:33;7.82;;;5.65;;
36351;SDS011;22382;44.768;17.206;2023-05-08T07:26:00;8.63;;;5.90;;
36351;SDS011;22382;44.768;17.206;2023-05-08T07:28:28;7.72;;;5.85;;
36351;SDS011;22382;44.768;17.206;2023-05-08T07:30:55;24.88;;;10.10;;
36351;SDS011;22382;44.768;17.206;2023-05-08T07:33:22;21.25;;;9.70;;
36351;SDS011;22382;44.768;17.206;2023-05-08T07:35:50;18.63;;;8.98;;
36351;SDS011;22382;44.768;17.206;2023-05-08T07:38:18;14.85;;;8.73;;
36351;SDS011;22382;44.768;17.206;2023-05-08T07:40:45;16.58;;;11.10;;
36351;SDS011;22382;44.768;17.206;2023-05-08T07:43:14;16.85;;;11.98;;
36351;SDS011;22382;44.768;17.206;2023-05-08T07:45:41;11.32;;;6.45;;
36351;SDS011;22382;44.768;17.206;2023-05-08T07:48:08;9.80;;;7.93;;
36351;SDS011;22382;44.768;17.206;2023-05-08T07:50:37;10.23;;;5.97;;
36351;SDS011;22382;44.768;17.206;2023-05-08T07:53:04;5.82;;;3.38;;
36351;SDS011;22382;44.768;17.206;2023-05-08T07:55:31;6.65;;;3.13;;
36351;SDS011;22382;44.768;17.206;2023-05-08T07:57:58;5.22;;;2.47;;
36351;SDS011;22382;44.768;17.206;2023-05-08T08:00:26;7.07;;;2.70;;
36351;SDS011;22382;44.768;17.206;2023-05-08T08:02:53;4.43;;;2.40;;
36351;SDS011;22382;44.768;17.206;2023-05-08T08:05:21;9.70;;;3.70;;
36351;SDS011;22382;44.768;17.206;2023-05-08T08:07:48;7.32;;;2.92;;
36351;SDS011;22382;44.768;17.206;2023-05-08T08:10:15;5.40;;;2.72;;
36351;SDS011;22382;44.768;17.206;2023-05-08T08:12:43;5.55;;;2.30;;
36351;SDS011;22382;44.768;17.206;2023-05-08T08:15:10;2.63;;;1.90;;
36351;SDS011;22382;44.768;17.206;2023-05-08T08:17:38;4.50;;;2.60;;
36351;SDS011;22382;44.768;17.206;2023-05-08T08:20:05;4.93;;;2.88;;
36351;SDS011;22382;44.768;17.206;2023-05-08T08:22:33;5.63;;;3.00;;
36351;SDS011;22382;44.768;17.206;2023-05-08T08:25:02;6.35;;;3.80;;
36351;SDS011;22382;44.768;17.206;2023-05-08T08:27:30;16.08;;;5.70;;
36351;SDS011;22382;44.768;17.206;2023-05-08T08:29:57;4.60;;;3.50;;
36351;SDS011;22382;44.768;17.206;2023-05-08T08:32:41;5.47;;;4.50;;
36351;SDS011;22382;44.768;17.206;2023-05-08T08:35:09;5.85;;;4.30;;
36351;SDS011;22382;44.768;17.206;2023-05-08T08:37:36;5.32;;;3.75;;
36351;SDS011;22382;44.768;17.206;2023-05-08T08:40:04;3.95;;;3.22;;
36351;SDS011;22382;44.768;17.206;2023-05-08T08:42:32;6.13;;;3.60;;
36351;SDS011;22382;44.768;17.206;2023-05-08T08:44:59;2.97;;;2.67;;
36351;SDS011;22382;44.768;17.206;2023-05-08T08:47:27;3.83;;;3.22;;
36351;SDS011;22382;44.768;17.206;2023-05-08T08:55:07;3.92;;;3.53;;
36351;SDS011;22382;44.768;17.206;2023-05-08T08:57:38;3.00;;;2.53;;
36351;SDS011;22382;44.768;17.206;2023-05-08T09:00:25;2.47;;;2.25;;
36351;SDS011;22382;44.768;17.206;2023-05-08T09:02:56;2.38;;;2.17;;
36351;SDS011;22382;44.768;17.206;2023-05-08T09:05:24;3.08;;;2.00;;
36351;SDS011;22382;44.768;17.206;2023-05-08T09:07:55;2.97;;;2.20;;
36351;SDS011;22382;44.768;17.206;2023-05-08T09:10:23;2.30;;;1.98;;
36351;SDS011;22382;44.768;17.206;2023-05-08T09:12:51;2.25;;;1.90;;
36351;SDS011;22382;44.768;17.206;2023-05-08T09:15:18;2.53;;;2.10;;
36351;SDS011;22382;44.768;17.206;2023-05-08T09:17:45;2.20;;;2.00;;
36351;SDS011;22382;44.768;17.206;2023-05-08T09:20:13;2.20;;;2.00;;
36351;SDS011;22382;44.768;17.206;2023-05-08T09:22:41;4.43;;;2.67;;
36351;SDS011;22382;44.768;17.206;2023-05-08T09:25:09;3.28;;;2.80;;
36351;SDS011;22382;44.768;17.206;2023-05-08T09:27:36;6.00;;;2.72;;
36351;SDS011;22382;44.768;17.206;2023-05-08T09:30:10;16.27;;;6.10;;
36351;SDS011;22382;44.768;17.206;2023-05-08T09:32:40;5.45;;;3.60;;
36351;SDS011;22382;44.768;17.206;2023-05-08T09:35:10;8.57;;;4.10;;
36351;SDS011;22382;44.768;17.206;2023-05-08T09:37:39;5.75;;;4.13;;
36351;SDS011;22382;44.768;17.206;2023-05-08T09:40:28;9.63;;;7.25;;
36351;SDS011;22382;44.768;17.206;2023-05-08T09:42:54;9.75;;;7.88;;
36351;SDS011;22382;44.768;17.206;2023-05-08T09:45:40;10.13;;;7.97;;
36351;SDS011;22382;44.768;17.206;2023-05-08T09:48:09;17.27;;;8.88;;
36351;SDS011;22382;44.768;17.206;2023-05-08T09:50:36;11.02;;;8.75;;
36351;SDS011;22382;44.768;17.206;2023-05-08T09:53:04;11.38;;;8.60;;
36351;SDS011;22382;44.768;17.206;2023-05-08T09:55:45;13.45;;;8.15;;
36351;SDS011;22382;44.768;17.206;2023-05-08T09:58:12;11.18;;;9.18;;
36351;SDS011;22382;44.768;17.206;2023-05-08T10:00:40;11.70;;;9.73;;
36351;SDS011;22382;44.768;17.206;2023-05-08T10:03:07;11.30;;;9.50;;
36351;SDS011;22382;44.768;17.206;2023-05-08T10:05:34;13.35;;;9.85;;
36351;SDS011;22382;44.768;17.206;2023-05-08T10:10:44;14.45;;;11.15;;
36351;SDS011;22382;44.768;17.206;2023-05-08T10:13:11;13.98;;;11.70;;
36351;SDS011;22382;44.768;17.206;2023-05-08T10:15:42;18.75;;;12.20;;
36351;SDS011;22382;44.768;17.206;2023-05-08T10:18:10;15.65;;;12.27;;
36351;SDS011;22382;44.768;17.206;2023-05-08T10:20:40;14.38;;;12.10;;
36351;SDS011;22382;44.768;17.206;2023-05-08T10:23:10;17.13;;;13.57;;
36351;SDS011;22382;44.768;17.206;2023-05-08T10:25:46;16.00;;;12.82;;
36351;SDS011;22382;44.768;17.206;2023-05-08T10:30:53;16.33;;;11.73;;
36351;SDS011;22382;44.768;17.206;2023-05-08T10:33:30;13.73;;;9.95;;
36351;SDS011;22382;44.768;17.206;2023-05-08T10:35:59;11.85;;;9.88;;
36351;SDS011;22382;44.768;17.206;2023-05-08T10:38:29;13.93;;;10.73;;
36351;SDS011;22382;44.768;17.206;2023-05-08T10:40:59;16.10;;;11.98;;
36351;SDS011;22382;44.768;17.206;2023-05-08T10:43:27;11.88;;;9.82;;
36351;SDS011;22382;44.768;17.206;2023-05-08T10:45:56;11.20;;;8.52;;
36351;SDS011;22382;44.768;17.206;2023-05-08T10:48:35;5.82;;;5.13;;
36351;SDS011;22382;44.768;17.206;2023-05-08T10:57:06;4.45;;;3.90;;
36351;SDS011;22382;44.768;17.206;2023-05-08T10:59:35;6.35;;;4.47;;
36351;SDS011;22382;44.768;17.206;2023-05-08T11:02:06;5.75;;;4.63;;
36351;SDS011;22382;44.768;17.206;2023-05-08T11:04:34;4.97;;;4.00;;
36351;SDS011;22382;44.768;17.206;2023-05-08T11:07:01;8.13;;;4.25;;
36351;SDS011;22382;44.768;17.206;2023-05-08T11:09:43;7.07;;;4.60;;
36351;SDS011;22382;44.768;17.206;2023-05-08T11:14:53;5.28;;;4.15;;
36351;SDS011;22382;44.768;17.206;2023-05-08T11:17:24;7.57;;;4.22;;
36351;SDS011;22382;44.768;17.206;2023-05-08T11:19:56;9.82;;;5.03;;
36351;SDS011;22382;44.768;17.206;2023-05-08T11:22:25;6.63;;;5.57;;
36351;SDS011;22382;44.768;17.206;2023-05-08T11:30:18;7.53;;;5.32;;
36351;SDS011;22382;44.768;17.206;2023-05-08T11:35:47;7.32;;;5.90;;
36351;SDS011;22382;44.768;17.206;2023-05-08T11:41:05;6.97;;;5.80;;
36351;SDS011;22382;44.768;17.206;2023-05-08T11:46:04;6.70;;;5.68;;
36351;SDS011;22382;44.768;17.206;2023-05-08T11:48:45;5.93;;;4.95;;
36351;SDS011;22382;44.768;17.206;2023-05-08T11:51:15;5.93;;;4.50;;
36351;SDS011;22382;44.768;17.206;2023-05-08T11:53:44;6.03;;;4.93;;
36351;SDS011;22382;44.768;17.206;2023-05-08T11:56:12;6.95;;;5.72;;
36351;SDS011;22382;44.768;17.206;2023-05-08T11:58:40;7.05;;;6.13;;
36351;SDS011;22382;44.768;17.206;2023-05-08T12:01:07;7.15;;;5.30;;
36351;SDS011;22382;44.768;17.206;2023-05-08T12:03:34;5.88;;;4.85;;
36351;SDS011;22382;44.768;17.206;2023-05-08T12:06:02;6.53;;;5.18;;
36351;SDS011;22382;44.768;17.206;2023-05-08T12:08:29;6.28;;;4.38;;
36351;SDS011;22382;44.768;17.206;2023-05-08T12:10:57;4.72;;;4.22;;
36351;SDS011;22382;44.768;17.206;2023-05-08T12:13:28;5.60;;;4.43;;
36351;SDS011;22382;44.768;17.206;2023-05-08T12:15:56;6.45;;;5.30;;
36351;SDS011;22382;44.768;17.206;2023-05-08T12:18:25;8.75;;;5.45;;
36351;SDS011;22382;44.768;17.206;2023-05-08T12:20:57;6.82;;;5.03;;
36351;SDS011;22382;44.768;17.206;2023-05-08T12:23:29;6.97;;;4.65;;
36351;SDS011;22382;44.768;17.206;2023-05-08T12:25:59;5.53;;;4.28;;
36351;SDS011;22382;44.768;17.206;2023-05-08T12:28:27;4.90;;;3.75;;
36351;SDS011;22382;44.768;17.206;2023-05-08T12:30:54;8.32;;;3.92;;
36351;SDS011;22382;44.768;17.206;2023-05-08T12:33:22;5.65;;;4.43;;
36351;SDS011;22382;44.768;17.206;2023-05-08T12:35:50;5.00;;;4.15;;
36351;SDS011;22382;44.768;17.206;2023-05-08T12:38:17;7.25;;;4.60;;
36351;SDS011;22382;44.768;17.206;2023-05-08T12:40:45;6.82;;;4.20;;
36351;SDS011;22382;44.768;17.206;2023-05-08T12:43:15;5.93;;;4.65;;
36351;SDS011;22382;44.768;17.206;2023-05-08T12:45:42;6.47;;;4.60;;
36351;SDS011;22382;44.768;17.206;2023-05-08T12:48:10;6.35;;;4.45;;
36351;SDS011;22382;44.768;17.206;2023-05-08T12:50:39;6.20;;;4.57;;
36351;SDS011;22382;44.768;17.206;2023-05-08T12:53:09;7.45;;;5.68;;
36351;SDS011;22382;44.768;17.206;2023-05-08T12:55:38;7.40;;;5.47;;
36351;SDS011;22382;44.768;17.206;2023-05-08T12:58:17;7.80;;;5.85;;
36351;SDS011;22382;44.768;17.206;2023-05-08T13:00:48;7.65;;;5.25;;
36351;SDS011;22382;44.768;17.206;2023-05-08T13:03:24;6.60;;;5.47;;
36351;SDS011;22382;44.768;17.206;2023-05-08T13:05:58;9.00;;;6.13;;
36351;SDS011;22382;44.768;17.206;2023-05-08T13:08:30;7.82;;;5.28;;
36351;SDS011;22382;44.768;17.206;2023-05-08T13:11:00;9.18;;;5.75;;
36351;SDS011;22382;44.768;17.206;2023-05-08T13:13:30;7.15;;;5.03;;
36351;SDS011;22382;44.768;17.206;2023-05-08T13:16:01;6.68;;;4.40;;
36351;SDS011;22382;44.768;17.206;2023-05-08T13:18:33;6.78;;;5.18;;
36351;SDS011;22382;44.768;17.206;2023-05-08T13:21:03;7.85;;;4.88;;
36351;SDS011;22382;44.768;17.206;2023-05-08T13:23:33;7.68;;;5.50;;
36351;SDS011;22382;44.768;17.206;2023-05-08T13:26:00;5.80;;;5.00;;
36351;SDS011;22382;44.768;17.206;2023-05-08T13:28:27;6.28;;;4.65;;
36351;SDS011;22382;44.768;17.206;2023-05-08T13:30:54;8.73;;;5.93;;
36351;SDS011;22382;44.768;17.206;2023-05-08T13:33:22;6.30;;;5.00;;
36351;SDS011;22382;44.768;17.206;2023-05-08T13:35:49;6.60;;;5.55;;
36351;SDS011;22382;44.768;17.206;2023-05-08T13:38:16;6.65;;;5.68;;
36351;SDS011;22382;44.768;17.206;2023-05-08T13:40:43;7.40;;;5.28;;
36351;SDS011;22382;44.768;17.206;2023-05-08T13:43:11;8.00;;;5.32;;
36351;SDS011;22382;44.768;17.206;2023-05-08T13:45:38;9.00;;;6.57;;
36351;SDS011;22382;44.768;17.206;2023-05-08T13:48:06;7.22;;;6.05;;
36351;SDS011;22382;44.768;17.206;2023-05-08T13:50:33;9.10;;;6.38;;
36351;SDS011;22382;44.768;17.206;2023-05-08T13:53:01;7.78;;;6.00;;
36351;SDS011;22382;44.768;17.206;2023-05-08T13:55:29;9.43;;;7.18;;
36351;SDS011;22382;44.768;17.206;2023-05-08T13:57:56;10.25;;;7.20;;
36351;SDS011;22382;44.768;17.206;2023-05-08T14:00:24;11.73;;;8.07;;
36351;SDS011;22382;44.768;17.206;2023-05-08T14:02:53;12.63;;;8.13;;
36351;SDS011;22382;44.768;17.206;2023-05-08T14:05:20;12.13;;;8.13;;
36351;SDS011;22382;44.768;17.206;2023-05-08T14:07:48;10.13;;;8.10;;
36351;SDS011;22382;44.768;17.206;2023-05-08T14:10:15;13.68;;;8.60;;
36351;SDS011;22382;44.768;17.206;2023-05-08T14:12:42;10.40;;;7.63;;
36351;SDS011;22382;44.768;17.206;2023-05-08T14:15:10;12.45;;;8.50;;
36351;SDS011;22382;44.768;17.206;2023-05-08T14:17:37;12.93;;;8.40;;
36351;SDS011;22382;44.768;17.206;2023-05-08T14:20:07;12.27;;;8.48;;
36351;SDS011;22382;44.768;17.206;2023-05-08T14:22:37;13.88;;;8.38;;
36351;SDS011;22382;44.768;17.206;2023-05-08T14:25:05;11.23;;;7.32;;
36351;SDS011;22382;44.768;17.206;2023-05-08T14:27:34;11.77;;;8.10;;
36351;SDS011;22382;44.768;17.206;2023-05-08T14:30:02;11.98;;;8.27;;
36351;SDS011;22382;44.768;17.206;2023-05-08T14:32:29;13.13;;;9.32;;
36351;SDS011;22382;44.768;17.206;2023-05-08T14:34:56;12.43;;;8.38;;
36351;SDS011;22382;44.768;17.206;2023-05-08T14:37:24;9.93;;;7.95;;
36351;SDS011;22382;44.768;17.206;2023-05-08T14:39:51;14.00;;;9.88;;
36351;SDS011;22382;44.768;17.206;2023-05-08T14:42:19;13.60;;;8.45;;
36351;SDS011;22382;44.768;17.206;2023-05-08T14:44:49;14.98;;;9.45;;
36351;SDS011;22382;44.768;17.206;2023-05-08T14:47:16;10.98;;;8.18;;
36351;SDS011;22382;44.768;17.206;2023-05-08T14:49:44;13.95;;;8.02;;
36351;SDS011;22382;44.768;17.206;2023-05-08T14:52:11;12.98;;;8.10;;
36351;SDS011;22382;44.768;17.206;2023-05-08T14:54:38;12.38;;;8.20;;
36351;SDS011;22382;44.768;17.206;2023-05-08T14:57:05;11.02;;;8.40;;
36351;SDS011;22382;44.768;17.206;2023-05-08T14:59:32;13.65;;;9.50;;
36351;SDS011;22382;44.768;17.206;2023-05-08T15:02:00;11.18;;;7.97;;
36351;SDS011;22382;44.768;17.206;2023-05-08T15:04:27;10.48;;;7.20;;
36351;SDS011;22382;44.768;17.206;2023-05-08T15:06:54;13.88;;;7.90;;
36351;SDS011;22382;44.768;17.206;2023-05-08T15:09:22;12.48;;;7.85;;
36351;SDS011;22382;44.768;17.206;2023-05-08T15:11:49;13.52;;;9.07;;
36351;SDS011;22382;44.768;17.206;2023-05-08T15:14:16;14.65;;;10.93;;
36351;SDS011;22382;44.768;17.206;2023-05-08T15:16:44;22.20;;;14.80;;
36351;SDS011;22382;44.768;17.206;2023-05-08T15:19:12;14.13;;;9.35;;
36351;SDS011;22382;44.768;17.206;2023-05-08T15:21:39;17.48;;;10.48;;
36351;SDS011;22382;44.768;17.206;2023-05-08T15:24:06;15.23;;;10.50;;
36351;SDS011;22382;44.768;17.206;2023-05-08T15:26:34;13.43;;;9.80;;
36351;SDS011;22382;44.768;17.206;2023-05-08T15:29:01;16.65;;;10.80;;
36351;SDS011;22382;44.768;17.206;2023-05-08T15:31:28;17.55;;;12.68;;
36351;SDS011;22382;44.768;17.206;2023-05-08T15:33:55;14.50;;;10.02;;
36351;SDS011;22382;44.768;17.206;2023-05-08T15:36:23;14.02;;;9.95;;
36351;SDS011;22382;44.768;17.206;2023-05-08T15:38:51;14.25;;;9.95;;
36351;SDS011;22382;44.768;17.206;2023-05-08T15:41:19;13.40;;;9.95;;
36351;SDS011;22382;44.768;17.206;2023-05-08T15:43:47;11.85;;;9.20;;
36351;SDS011;22382;44.768;17.206;2023-05-08T15:46:14;14.68;;;9.90;;
36351;SDS011;22382;44.768;17.206;2023-05-08T15:48:41;14.80;;;9.23;;
36351;SDS011;22382;44.768;17.206;2023-05-08T15:51:09;11.93;;;8.52;;
36351;SDS011;22382;44.768;17.206;2023-05-08T15:53:37;11.43;;;8.18;;
36351;SDS011;22382;44.768;17.206;2023-05-08T15:56:05;11.07;;;8.10;;